sensor_id;sensor_type;location;lat;lon;timestamp;P1;durP1;ratioP1;P2;durP2;ratioP2
53108;SDS011;39007;53.090;6.074;2023-03-12T00:02:19;6.65;;;4.20;;
53108;SDS011;39007;53.090;6.074;2023-03-12T00:04:46;8.50;;;4.70;;
53108;SDS011;39007;53.090;6.074;2023-03-12T00:07:12;7.18;;;4.25;;
53108;SDS011;39007;53.090;6.074;2023-03-12T00:09:38;10.20;;;5.10;;
53108;SDS011;39007;53.090;6.074;2023-03-12T00:12:04;9.95;;;4.80;;
53108;SDS011;39007;53.090;6.074;2023-03-12T00:14:31;9.18;;;4.63;;
53108;SDS011;39007;53.090;6.074;2023-03-12T00:16:57;12.00;;;5.18;;
53108;SDS011;39007;53.090;6.074;2023-03-12T00:19:24;10.00;;;5.43;;
53108;SDS011;39007;53.090;6.074;2023-03-12T00:21:50;11.65;;;5.07;;
53108;SDS011;39007;53.090;6.074;2023-03-12T00:24:16;11.18;;;5.68;;
53108;SDS011;39007;53.090;6.074;2023-03-12T00:26:42;17.45;;;7.90;;
53108;SDS011;39007;53.090;6.074;2023-03-12T00:29:08;16.58;;;9.18;;
53108;SDS011;39007;53.090;6.074;2023-03-12T00:31:34;12.45;;;6.15;;
53108;SDS011;39007;53.090;6.074;2023-03-12T00:34:01;9.75;;;5.20;;
53108;SDS011;39007;53.090;6.074;2023-03-12T00:36:28;11.10;;;6.30;;
53108;SDS011;39007;53.090;6.074;2023-03-12T00:38:55;9.52;;;5.47;;
53108;SDS011;39007;53.090;6.074;2023-03-12T00:41:21;9.75;;;4.90;;
53108;SDS011;39007;53.090;6.074;2023-03-12T00:43:47;10.05;;;4.82;;
53108;SDS011;39007;53.090;6.074;2023-03-12T00:46:14;12.00;;;5.43;;
53108;SDS011;39007;53.090;6.074;2023-03-12T00:48:40;12.55;;;5.07;;
53108;SDS011;39007;53.090;6.074;2023-03-12T00:51:07;9.20;;;5.07;;
53108;SDS011;39007;53.090;6.074;2023-03-12T00:53:33;13.27;;;4.85;;
53108;SDS011;39007;53.090;6.074;2023-03-12T00:55:59;10.82;;;5.15;;
53108;SDS011;39007;53.090;6.074;2023-03-12T00:58:26;8.93;;;4.07;;
53108;SDS011;39007;53.090;6.074;2023-03-12T01:00:52;9.55;;;4.50;;
53108;SDS011;39007;53.090;6.074;2023-03-12T01:03:18;10.48;;;4.03;;
53108;SDS011;39007;53.090;6.074;2023-03-12T01:05:44;10.30;;;4.60;;
53108;SDS011;39007;53.090;6.074;2023-03-12T01:08:11;8.65;;;4.43;;
53108;SDS011;39007;53.090;6.074;2023-03-12T01:10:40;8.02;;;3.88;;
53108;SDS011;39007;53.090;6.074;2023-03-12T01:13:06;9.60;;;3.88;;
53108;SDS011;39007;53.090;6.074;2023-03-12T01:15:33;7.50;;;4.15;;
53108;SDS011;39007;53.090;6.074;2023-03-12T01:17:59;11.55;;;4.43;;
53108;SDS011;39007;53.090;6.074;2023-03-12T01:20:25;8.57;;;4.68;;
53108;SDS011;39007;53.090;6.074;2023-03-12T01:22:51;10.95;;;4.72;;
53108;SDS011;39007;53.090;6.074;2023-03-12T01:25:17;9.27;;;4.53;;
53108;SDS011;39007;53.090;6.074;2023-03-12T01:27:43;9.30;;;4.35;;
53108;SDS011;39007;53.090;6.074;2023-03-12T01:30:10;8.75;;;4.43;;
53108;SDS011;39007;53.090;6.074;2023-03-12T01:32:36;8.63;;;4.20;;
53108;SDS011;39007;53.090;6.074;2023-03-12T01:35:02;10.40;;;4.63;;
53108;SDS011;39007;53.090;6.074;2023-03-12T01:37:28;16.33;;;4.72;;
53108;SDS011;39007;53.090;6.074;2023-03-12T01:39:54;13.23;;;5.00;;
53108;SDS011;39007;53.090;6.074;2023-03-12T01:42:20;6.60;;;4.18;;
53108;SDS011;39007;53.090;6.074;2023-03-12T01:44:56;8.57;;;4.13;;
53108;SDS011;39007;53.090;6.074;2023-03-12T01:47:23;8.40;;;4.60;;
53108;SDS011;39007;53.090;6.074;2023-03-12T01:49:50;12.27;;;4.43;;
53108;SDS011;39007;53.090;6.074;2023-03-12T01:52:18;9.18;;;4.85;;
53108;SDS011;39007;53.090;6.074;2023-03-12T01:57:30;9.85;;;4.43;;
53108;SDS011;39007;53.090;6.074;2023-03-12T02:00:00;7.80;;;4.80;;
53108;SDS011;39007;53.090;6.074;2023-03-12T02:02:28;7.95;;;4.20;;
53108;SDS011;39007;53.090;6.074;2023-03-12T02:04:58;8.00;;;4.13;;
53108;SDS011;39007;53.090;6.074;2023-03-12T02:07:28;10.93;;;4.97;;
53108;SDS011;39007;53.090;6.074;2023-03-12T02:09:54;14.43;;;5.57;;
53108;SDS011;39007;53.090;6.074;2023-03-12T02:12:21;12.00;;;5.63;;
53108;SDS011;39007;53.090;6.074;2023-03-12T02:14:47;9.77;;;5.50;;
53108;SDS011;39007;53.090;6.074;2023-03-12T02:17:13;13.82;;;5.45;;
53108;SDS011;39007;53.090;6.074;2023-03-12T02:22:05;9.65;;;5.68;;
53108;SDS011;39007;53.090;6.074;2023-03-12T02:24:38;12.80;;;6.05;;
53108;SDS011;39007;53.090;6.074;2023-03-12T02:27:07;11.32;;;5.40;;
53108;SDS011;39007;53.090;6.074;2023-03-12T02:29:35;12.02;;;5.82;;
53108;SDS011;39007;53.090;6.074;2023-03-12T02:32:01;10.43;;;5.70;;
53108;SDS011;39007;53.090;6.074;2023-03-12T02:34:28;16.15;;;6.45;;
53108;SDS011;39007;53.090;6.074;2023-03-12T02:36:54;12.32;;;5.88;;
53108;SDS011;39007;53.090;6.074;2023-03-12T02:39:20;13.18;;;6.13;;
53108;SDS011;39007;53.090;6.074;2023-03-12T02:41:47;11.45;;;6.00;;
53108;SDS011;39007;53.090;6.074;2023-03-12T02:44:27;9.20;;;5.38;;
53108;SDS011;39007;53.090;6.074;2023-03-12T02:46:55;11.70;;;5.72;;
53108;SDS011;39007;53.090;6.074;2023-03-12T02:49:22;9.90;;;4.95;;
53108;SDS011;39007;53.090;6.074;2023-03-12T02:51:48;10.05;;;5.28;;
53108;SDS011;39007;53.090;6.074;2023-03-12T02:54:15;10.57;;;5.40;;
53108;SDS011;39007;53.090;6.074;2023-03-12T02:56:42;11.88;;;4.82;;
53108;SDS011;39007;53.090;6.074;2023-03-12T02:59:09;9.98;;;4.63;;
53108;SDS011;39007;53.090;6.074;2023-03-12T03:01:35;8.25;;;4.70;;
53108;SDS011;39007;53.090;6.074;2023-03-12T03:04:01;9.52;;;4.70;;
53108;SDS011;39007;53.090;6.074;2023-03-12T03:06:28;8.75;;;4.40;;
53108;SDS011;39007;53.090;6.074;2023-03-12T03:08:55;8.57;;;4.63;;
53108;SDS011;39007;53.090;6.074;2023-03-12T03:11:21;9.38;;;4.25;;
53108;SDS011;39007;53.090;6.074;2023-03-12T03:13:49;9.73;;;4.68;;
53108;SDS011;39007;53.090;6.074;2023-03-12T03:16:15;10.80;;;4.43;;
53108;SDS011;39007;53.090;6.074;2023-03-12T03:18:41;9.85;;;4.13;;
53108;SDS011;39007;53.090;6.074;2023-03-12T03:21:08;8.75;;;4.03;;
53108;SDS011;39007;53.090;6.074;2023-03-12T03:23:34;10.07;;;4.28;;
53108;SDS011;39007;53.090;6.074;2023-03-12T03:26:01;11.95;;;4.68;;
53108;SDS011;39007;53.090;6.074;2023-03-12T03:28:28;8.45;;;4.30;;
53108;SDS011;39007;53.090;6.074;2023-03-12T03:30:55;11.55;;;4.47;;
53108;SDS011;39007;53.090;6.074;2023-03-12T03:33:28;11.65;;;5.03;;
53108;SDS011;39007;53.090;6.074;2023-03-12T03:35:55;9.70;;;4.38;;
53108;SDS011;39007;53.090;6.074;2023-03-12T03:38:23;8.45;;;4.10;;
53108;SDS011;39007;53.090;6.074;2023-03-12T03:40:50;10.23;;;4.53;;
53108;SDS011;39007;53.090;6.074;2023-03-12T03:43:16;14.52;;;4.32;;
53108;SDS011;39007;53.090;6.074;2023-03-12T03:45:42;9.27;;;3.95;;
53108;SDS011;39007;53.090;6.074;2023-03-12T03:48:12;9.25;;;3.80;;
53108;SDS011;39007;53.090;6.074;2023-03-12T03:50:38;14.57;;;4.28;;
53108;SDS011;39007;53.090;6.074;2023-03-12T03:53:05;10.55;;;3.75;;
53108;SDS011;39007;53.090;6.074;2023-03-12T03:55:35;8.02;;;4.15;;
53108;SDS011;39007;53.090;6.074;2023-03-12T03:58:01;11.63;;;4.32;;
53108;SDS011;39007;53.090;6.074;2023-03-12T04:00:27;9.35;;;4.65;;
53108;SDS011;39007;53.090;6.074;2023-03-12T04:02:53;11.55;;;4.20;;
53108;SDS011;39007;53.090;6.074;2023-03-12T04:05:20;8.55;;;4.38;;
53108;SDS011;39007;53.090;6.074;2023-03-12T04:07:46;10.02;;;4.30;;
53108;SDS011;39007;53.090;6.074;2023-03-12T04:10:12;9.52;;;3.80;;
53108;SDS011;39007;53.090;6.074;2023-03-12T04:12:38;8.18;;;3.90;;
53108;SDS011;39007;53.090;6.074;2023-03-12T04:15:04;11.35;;;4.35;;
53108;SDS011;39007;53.090;6.074;2023-03-12T04:17:31;8.63;;;4.00;;
53108;SDS011;39007;53.090;6.074;2023-03-12T04:19:57;11.18;;;4.43;;
53108;SDS011;39007;53.090;6.074;2023-03-12T04:22:23;8.40;;;4.03;;
53108;SDS011;39007;53.090;6.074;2023-03-12T04:24:49;10.02;;;4.50;;
53108;SDS011;39007;53.090;6.074;2023-03-12T04:27:15;13.80;;;3.90;;
53108;SDS011;39007;53.090;6.074;2023-03-12T04:29:41;10.93;;;5.15;;
53108;SDS011;39007;53.090;6.074;2023-03-12T04:32:07;9.10;;;4.30;;
53108;SDS011;39007;53.090;6.074;2023-03-12T04:34:33;10.07;;;4.18;;
53108;SDS011;39007;53.090;6.074;2023-03-12T04:37:00;10.52;;;4.13;;
53108;SDS011;39007;53.090;6.074;2023-03-12T04:39:27;8.77;;;4.13;;
53108;SDS011;39007;53.090;6.074;2023-03-12T04:41:53;10.90;;;4.38;;
53108;SDS011;39007;53.090;6.074;2023-03-12T04:44:19;11.27;;;4.38;;
53108;SDS011;39007;53.090;6.074;2023-03-12T04:46:45;8.43;;;4.13;;
53108;SDS011;39007;53.090;6.074;2023-03-12T04:49:11;9.80;;;4.25;;
53108;SDS011;39007;53.090;6.074;2023-03-12T04:51:37;9.52;;;4.30;;
53108;SDS011;39007;53.090;6.074;2023-03-12T04:54:03;8.90;;;4.57;;
53108;SDS011;39007;53.090;6.074;2023-03-12T04:56:30;10.63;;;4.95;;
53108;SDS011;39007;53.090;6.074;2023-03-12T04:58:56;10.88;;;4.63;;
53108;SDS011;39007;53.090;6.074;2023-03-12T05:01:26;12.38;;;4.15;;
53108;SDS011;39007;53.090;6.074;2023-03-12T05:03:52;12.75;;;4.35;;
53108;SDS011;39007;53.090;6.074;2023-03-12T05:06:19;7.25;;;3.85;;
53108;SDS011;39007;53.090;6.074;2023-03-12T05:08:45;9.13;;;4.55;;
53108;SDS011;39007;53.090;6.074;2023-03-12T05:11:12;9.10;;;4.35;;
53108;SDS011;39007;53.090;6.074;2023-03-12T05:13:38;10.48;;;4.10;;
53108;SDS011;39007;53.090;6.074;2023-03-12T05:16:04;11.48;;;4.30;;
53108;SDS011;39007;53.090;6.074;2023-03-12T05:18:30;9.73;;;4.03;;
53108;SDS011;39007;53.090;6.074;2023-03-12T05:21:00;10.75;;;4.40;;
53108;SDS011;39007;53.090;6.074;2023-03-12T05:23:27;10.55;;;4.30;;
53108;SDS011;39007;53.090;6.074;2023-03-12T05:25:53;9.88;;;4.25;;
53108;SDS011;39007;53.090;6.074;2023-03-12T05:28:19;8.25;;;4.10;;
53108;SDS011;39007;53.090;6.074;2023-03-12T05:30:46;10.40;;;4.18;;
53108;SDS011;39007;53.090;6.074;2023-03-12T05:33:13;10.00;;;4.53;;
53108;SDS011;39007;53.090;6.074;2023-03-12T05:35:39;8.05;;;4.20;;
53108;SDS011;39007;53.090;6.074;2023-03-12T05:38:05;9.93;;;4.50;;
53108;SDS011;39007;53.090;6.074;2023-03-12T05:40:31;8.20;;;4.50;;
53108;SDS011;39007;53.090;6.074;2023-03-12T05:42:57;12.07;;;4.50;;
53108;SDS011;39007;53.090;6.074;2023-03-12T05:45:23;12.23;;;4.15;;
53108;SDS011;39007;53.090;6.074;2023-03-12T05:47:49;9.02;;;4.30;;
53108;SDS011;39007;53.090;6.074;2023-03-12T05:50:15;9.60;;;4.20;;
53108;SDS011;39007;53.090;6.074;2023-03-12T05:52:42;11.82;;;4.50;;
53108;SDS011;39007;53.090;6.074;2023-03-12T05:55:08;8.60;;;4.22;;
53108;SDS011;39007;53.090;6.074;2023-03-12T05:57:34;8.40;;;4.25;;
53108;SDS011;39007;53.090;6.074;2023-03-12T06:00:00;12.52;;;4.97;;
53108;SDS011;39007;53.090;6.074;2023-03-12T06:02:26;11.02;;;4.95;;
53108;SDS011;39007;53.090;6.074;2023-03-12T06:04:52;9.25;;;4.90;;
53108;SDS011;39007;53.090;6.074;2023-03-12T06:07:19;8.88;;;4.10;;
53108;SDS011;39007;53.090;6.074;2023-03-12T06:09:45;10.73;;;4.15;;
53108;SDS011;39007;53.090;6.074;2023-03-12T06:12:11;11.13;;;4.60;;
53108;SDS011;39007;53.090;6.074;2023-03-12T06:14:37;11.00;;;4.80;;
53108;SDS011;39007;53.090;6.074;2023-03-12T06:17:03;13.30;;;4.93;;
53108;SDS011;39007;53.090;6.074;2023-03-12T06:19:29;10.50;;;4.78;;
53108;SDS011;39007;53.090;6.074;2023-03-12T06:21:55;11.68;;;4.32;;
53108;SDS011;39007;53.090;6.074;2023-03-12T06:24:21;11.85;;;4.78;;
53108;SDS011;39007;53.090;6.074;2023-03-12T06:26:48;9.30;;;5.13;;
53108;SDS011;39007;53.090;6.074;2023-03-12T06:29:14;7.90;;;4.40;;
53108;SDS011;39007;53.090;6.074;2023-03-12T06:31:40;11.45;;;4.82;;
53108;SDS011;39007;53.090;6.074;2023-03-12T06:34:07;12.63;;;4.65;;
53108;SDS011;39007;53.090;6.074;2023-03-12T06:36:34;16.42;;;4.72;;
53108;SDS011;39007;53.090;6.074;2023-03-12T06:39:01;14.13;;;4.78;;
53108;SDS011;39007;53.090;6.074;2023-03-12T06:41:30;10.40;;;4.82;;
53108;SDS011;39007;53.090;6.074;2023-03-12T06:43:56;8.95;;;4.35;;
53108;SDS011;39007;53.090;6.074;2023-03-12T06:46:23;8.70;;;4.80;;
53108;SDS011;39007;53.090;6.074;2023-03-12T06:48:49;13.68;;;5.47;;
53108;SDS011;39007;53.090;6.074;2023-03-12T06:51:16;10.15;;;5.15;;
53108;SDS011;39007;53.090;6.074;2023-03-12T06:53:43;11.05;;;5.28;;
53108;SDS011;39007;53.090;6.074;2023-03-12T06:56:09;15.73;;;5.20;;
53108;SDS011;39007;53.090;6.074;2023-03-12T06:58:35;12.38;;;5.03;;
53108;SDS011;39007;53.090;6.074;2023-03-12T07:01:01;12.07;;;5.38;;
53108;SDS011;39007;53.090;6.074;2023-03-12T07:03:27;10.68;;;5.30;;
53108;SDS011;39007;53.090;6.074;2023-03-12T07:05:54;10.77;;;6.00;;
53108;SDS011;39007;53.090;6.074;2023-03-12T07:08:21;10.88;;;5.78;;
53108;SDS011;39007;53.090;6.074;2023-03-12T07:10:47;13.45;;;5.60;;
53108;SDS011;39007;53.090;6.074;2023-03-12T07:13:13;12.25;;;5.78;;
53108;SDS011;39007;53.090;6.074;2023-03-12T07:15:40;17.48;;;6.43;;
53108;SDS011;39007;53.090;6.074;2023-03-12T07:18:06;13.63;;;5.90;;
53108;SDS011;39007;53.090;6.074;2023-03-12T07:20:35;13.05;;;5.90;;
53108;SDS011;39007;53.090;6.074;2023-03-12T07:23:02;10.60;;;6.30;;
53108;SDS011;39007;53.090;6.074;2023-03-12T07:25:28;13.00;;;6.88;;
53108;SDS011;39007;53.090;6.074;2023-03-12T07:27:54;11.20;;;6.35;;
53108;SDS011;39007;53.090;6.074;2023-03-12T07:30:20;12.55;;;5.95;;
53108;SDS011;39007;53.090;6.074;2023-03-12T07:32:46;11.80;;;6.05;;
53108;SDS011;39007;53.090;6.074;2023-03-12T07:35:13;9.10;;;5.88;;
53108;SDS011;39007;53.090;6.074;2023-03-12T07:37:39;17.75;;;6.20;;
53108;SDS011;39007;53.090;6.074;2023-03-12T07:40:05;15.15;;;6.50;;
53108;SDS011;39007;53.090;6.074;2023-03-12T07:42:32;12.35;;;6.63;;
53108;SDS011;39007;53.090;6.074;2023-03-12T07:44:58;13.35;;;6.70;;
53108;SDS011;39007;53.090;6.074;2023-03-12T07:47:24;11.25;;;6.90;;
53108;SDS011;39007;53.090;6.074;2023-03-12T07:49:50;11.50;;;6.60;;
53108;SDS011;39007;53.090;6.074;2023-03-12T07:52:18;16.17;;;7.32;;
53108;SDS011;39007;53.090;6.074;2023-03-12T07:54:44;17.85;;;7.45;;
53108;SDS011;39007;53.090;6.074;2023-03-12T07:57:10;13.80;;;7.47;;
53108;SDS011;39007;53.090;6.074;2023-03-12T07:59:36;12.05;;;7.13;;
53108;SDS011;39007;53.090;6.074;2023-03-12T08:02:02;15.63;;;7.03;;
53108;SDS011;39007;53.090;6.074;2023-03-12T08:04:28;14.38;;;7.63;;
53108;SDS011;39007;53.090;6.074;2023-03-12T08:06:55;13.63;;;7.72;;
53108;SDS011;39007;53.090;6.074;2023-03-12T08:09:21;12.68;;;7.68;;
53108;SDS011;39007;53.090;6.074;2023-03-12T08:11:47;13.63;;;7.47;;
53108;SDS011;39007;53.090;6.074;2023-03-12T08:14:13;16.95;;;7.25;;
53108;SDS011;39007;53.090;6.074;2023-03-12T08:16:39;15.65;;;7.55;;
53108;SDS011;39007;53.090;6.074;2023-03-12T08:19:05;18.33;;;7.97;;
53108;SDS011;39007;53.090;6.074;2023-03-12T08:21:31;18.42;;;8.40;;
53108;SDS011;39007;53.090;6.074;2023-03-12T08:23:58;21.05;;;8.82;;
53108;SDS011;39007;53.090;6.074;2023-03-12T08:26:24;12.15;;;7.68;;
53108;SDS011;39007;53.090;6.074;2023-03-12T08:28:50;16.58;;;8.82;;
53108;SDS011;39007;53.090;6.074;2023-03-12T08:31:16;14.80;;;9.20;;
53108;SDS011;39007;53.090;6.074;2023-03-12T08:33:42;15.02;;;9.55;;
53108;SDS011;39007;53.090;6.074;2023-03-12T08:36:10;16.25;;;7.93;;
53108;SDS011;39007;53.090;6.074;2023-03-12T08:38:37;15.75;;;9.40;;
53108;SDS011;39007;53.090;6.074;2023-03-12T08:41:03;14.40;;;8.23;;
53108;SDS011;39007;53.090;6.074;2023-03-12T08:43:29;15.18;;;8.15;;
53108;SDS011;39007;53.090;6.074;2023-03-12T08:45:56;18.20;;;8.52;;
53108;SDS011;39007;53.090;6.074;2023-03-12T08:48:22;16.92;;;7.72;;
53108;SDS011;39007;53.090;6.074;2023-03-12T08:50:48;12.05;;;7.95;;
53108;SDS011;39007;53.090;6.074;2023-03-12T08:53:15;15.88;;;8.25;;
53108;SDS011;39007;53.090;6.074;2023-03-12T08:55:41;13.30;;;7.65;;
53108;SDS011;39007;53.090;6.074;2023-03-12T08:58:07;14.07;;;7.53;;
53108;SDS011;39007;53.090;6.074;2023-03-12T09:00:34;16.30;;;8.15;;
53108;SDS011;39007;53.090;6.074;2023-03-12T09:03:00;12.35;;;8.20;;
53108;SDS011;39007;53.090;6.074;2023-03-12T09:05:26;12.35;;;7.25;;
53108;SDS011;39007;53.090;6.074;2023-03-12T09:07:54;16.17;;;9.13;;
53108;SDS011;39007;53.090;6.074;2023-03-12T09:10:20;14.68;;;8.45;;
53108;SDS011;39007;53.090;6.074;2023-03-12T09:12:46;21.42;;;9.73;;
53108;SDS011;39007;53.090;6.074;2023-03-12T09:15:12;18.42;;;9.20;;
53108;SDS011;39007;53.090;6.074;2023-03-12T09:17:39;12.75;;;8.10;;
53108;SDS011;39007;53.090;6.074;2023-03-12T09:20:06;12.43;;;7.40;;
53108;SDS011;39007;53.090;6.074;2023-03-12T09:22:32;15.65;;;8.68;;
53108;SDS011;39007;53.090;6.074;2023-03-12T09:25:01;14.60;;;8.85;;
53108;SDS011;39007;53.090;6.074;2023-03-12T09:27:27;13.90;;;9.02;;
53108;SDS011;39007;53.090;6.074;2023-03-12T09:29:53;14.95;;;8.95;;
53108;SDS011;39007;53.090;6.074;2023-03-12T09:32:19;16.08;;;9.30;;
53108;SDS011;39007;53.090;6.074;2023-03-12T09:34:46;17.17;;;11.20;;
53108;SDS011;39007;53.090;6.074;2023-03-12T09:37:12;14.93;;;10.25;;
53108;SDS011;39007;53.090;6.074;2023-03-12T09:39:38;16.17;;;11.20;;
53108;SDS011;39007;53.090;6.074;2023-03-12T09:42:04;14.98;;;8.40;;
53108;SDS011;39007;53.090;6.074;2023-03-12T09:44:33;17.38;;;9.68;;
53108;SDS011;39007;53.090;6.074;2023-03-12T09:47:24;15.40;;;9.13;;
53108;SDS011;39007;53.090;6.074;2023-03-12T09:49:50;13.63;;;8.93;;
53108;SDS011;39007;53.090;6.074;2023-03-12T09:52:23;13.65;;;8.90;;
53108;SDS011;39007;53.090;6.074;2023-03-12T09:57:34;16.83;;;9.82;;
53108;SDS011;39007;53.090;6.074;2023-03-12T10:00:00;15.70;;;9.15;;
53108;SDS011;39007;53.090;6.074;2023-03-12T10:05:05;15.60;;;8.73;;
53108;SDS011;39007;53.090;6.074;2023-03-12T10:07:36;14.23;;;9.23;;
53108;SDS011;39007;53.090;6.074;2023-03-12T10:15:28;13.02;;;10.13;;
53108;SDS011;39007;53.090;6.074;2023-03-12T10:23:06;15.70;;;10.00;;
53108;SDS011;39007;53.090;6.074;2023-03-12T10:28:19;13.20;;;10.13;;
53108;SDS011;39007;53.090;6.074;2023-03-12T10:30:51;14.85;;;11.02;;
53108;SDS011;39007;53.090;6.074;2023-03-12T10:33:19;16.55;;;11.05;;
53108;SDS011;39007;53.090;6.074;2023-03-12T10:35:45;16.50;;;11.75;;
53108;SDS011;39007;53.090;6.074;2023-03-12T10:38:24;18.77;;;10.82;;
53108;SDS011;39007;53.090;6.074;2023-03-12T10:40:52;15.82;;;12.23;;
53108;SDS011;39007;53.090;6.074;2023-03-12T10:43:18;18.00;;;11.32;;
53108;SDS011;39007;53.090;6.074;2023-03-12T10:48:21;20.38;;;12.80;;
53108;SDS011;39007;53.090;6.074;2023-03-12T10:50:59;19.02;;;12.50;;
53108;SDS011;39007;53.090;6.074;2023-03-12T10:53:26;22.92;;;14.57;;
53108;SDS011;39007;53.090;6.074;2023-03-12T10:55:58;25.77;;;14.77;;
53108;SDS011;39007;53.090;6.074;2023-03-12T10:58:24;25.52;;;14.90;;
53108;SDS011;39007;53.090;6.074;2023-03-12T11:00:57;20.67;;;14.68;;
53108;SDS011;39007;53.090;6.074;2023-03-12T11:03:24;20.65;;;13.63;;
53108;SDS011;39007;53.090;6.074;2023-03-12T11:05:51;28.08;;;15.93;;
53108;SDS011;39007;53.090;6.074;2023-03-12T11:08:28;19.63;;;14.35;;
53108;SDS011;39007;53.090;6.074;2023-03-12T11:10:55;23.33;;;15.52;;
53108;SDS011;39007;53.090;6.074;2023-03-12T11:13:23;23.45;;;15.50;;
53108;SDS011;39007;53.090;6.074;2023-03-12T11:15:50;24.48;;;15.85;;
53108;SDS011;39007;53.090;6.074;2023-03-12T11:18:21;23.92;;;15.73;;
53108;SDS011;39007;53.090;6.074;2023-03-12T11:20:50;27.20;;;16.95;;
53108;SDS011;39007;53.090;6.074;2023-03-12T11:23:21;30.50;;;18.40;;
53108;SDS011;39007;53.090;6.074;2023-03-12T11:25:51;30.00;;;18.90;;
53108;SDS011;39007;53.090;6.074;2023-03-12T11:28:20;28.73;;;17.83;;
53108;SDS011;39007;53.090;6.074;2023-03-12T11:30:47;30.23;;;19.35;;
53108;SDS011;39007;53.090;6.074;2023-03-12T11:33:14;29.67;;;20.45;;
53108;SDS011;39007;53.090;6.074;2023-03-12T11:36:01;28.10;;;19.83;;
53108;SDS011;39007;53.090;6.074;2023-03-12T11:38:37;31.75;;;21.63;;
53108;SDS011;39007;53.090;6.074;2023-03-12T11:41:15;29.00;;;20.48;;
53108;SDS011;39007;53.090;6.074;2023-03-12T11:49:00;27.55;;;19.55;;
53108;SDS011;39007;53.090;6.074;2023-03-12T12:01:43;37.55;;;24.65;;
53108;SDS011;39007;53.090;6.074;2023-03-12T12:06:55;36.17;;;23.13;;
53108;SDS011;39007;53.090;6.074;2023-03-12T12:10:26;36.03;;;23.85;;
53108;SDS011;39007;53.090;6.074;2023-03-12T12:12:30;44.47;;;25.73;;
53108;SDS011;39007;53.090;6.074;2023-03-12T12:15:11;41.78;;;25.85;;
53108;SDS011;39007;53.090;6.074;2023-03-12T12:20:32;54.83;;;27.23;;
53108;SDS011;39007;53.090;6.074;2023-03-12T12:31:39;55.38;;;23.20;;
53108;SDS011;39007;53.090;6.074;2023-03-12T12:36:26;54.17;;;20.13;;
53108;SDS011;39007;53.090;6.074;2023-03-12T12:38:55;54.10;;;18.23;;
53108;SDS011;39007;53.090;6.074;2023-03-12T12:41:26;57.85;;;18.17;;
53108;SDS011;39007;53.090;6.074;2023-03-12T12:43:56;51.15;;;16.45;;
53108;SDS011;39007;53.090;6.074;2023-03-12T12:46:29;42.28;;;14.57;;
53108;SDS011;39007;53.090;6.074;2023-03-12T12:49:02;55.85;;;16.58;;
53108;SDS011;39007;53.090;6.074;2023-03-12T12:51:32;46.63;;;12.25;;
53108;SDS011;39007;53.090;6.074;2023-03-12T12:56:37;41.53;;;10.40;;
53108;SDS011;39007;53.090;6.074;2023-03-12T13:01:51;44.30;;;9.77;;
53108;SDS011;39007;53.090;6.074;2023-03-12T13:04:39;41.83;;;9.77;;
53108;SDS011;39007;53.090;6.074;2023-03-12T13:09:41;42.63;;;9.95;;
53108;SDS011;39007;53.090;6.074;2023-03-12T13:14:38;46.65;;;9.23;;
53108;SDS011;39007;53.090;6.074;2023-03-12T13:17:05;38.28;;;9.07;;
53108;SDS011;39007;53.090;6.074;2023-03-12T13:19:31;39.80;;;9.18;;
53108;SDS011;39007;53.090;6.074;2023-03-12T13:24:30;36.33;;;7.45;;
53108;SDS011;39007;53.090;6.074;2023-03-12T13:27:04;45.22;;;9.15;;
53108;SDS011;39007;53.090;6.074;2023-03-12T13:32:02;35.97;;;7.65;;
53108;SDS011;39007;53.090;6.074;2023-03-12T13:34:29;43.90;;;8.23;;
53108;SDS011;39007;53.090;6.074;2023-03-12T13:36:59;35.88;;;7.82;;
53108;SDS011;39007;53.090;6.074;2023-03-12T13:39:32;32.28;;;7.50;;
53108;SDS011;39007;53.090;6.074;2023-03-12T13:41:59;37.00;;;7.13;;
53108;SDS011;39007;53.090;6.074;2023-03-12T13:46:59;35.03;;;6.65;;
53108;SDS011;39007;53.090;6.074;2023-03-12T13:49:28;41.15;;;9.00;;
53108;SDS011;39007;53.090;6.074;2023-03-12T13:54:44;34.00;;;6.95;;
53108;SDS011;39007;53.090;6.074;2023-03-12T13:57:54;42.83;;;7.72;;
53108;SDS011;39007;53.090;6.074;2023-03-12T14:00:02;44.47;;;7.90;;
53108;SDS011;39007;53.090;6.074;2023-03-12T14:02:31;34.83;;;7.53;;
53108;SDS011;39007;53.090;6.074;2023-03-12T14:05:17;36.67;;;7.35;;
53108;SDS011;39007;53.090;6.074;2023-03-12T14:13:16;33.33;;;6.88;;
53108;SDS011;39007;53.090;6.074;2023-03-12T14:15:40;43.35;;;7.60;;
53108;SDS011;39007;53.090;6.074;2023-03-12T14:18:14;43.70;;;7.75;;
53108;SDS011;39007;53.090;6.074;2023-03-12T14:20:42;35.03;;;7.40;;
53108;SDS011;39007;53.090;6.074;2023-03-12T14:23:15;32.47;;;6.85;;
53108;SDS011;39007;53.090;6.074;2023-03-12T14:25:42;38.15;;;8.10;;
53108;SDS011;39007;53.090;6.074;2023-03-12T14:28:10;35.15;;;7.05;;
53108;SDS011;39007;53.090;6.074;2023-03-12T14:30:41;33.47;;;7.47;;
53108;SDS011;39007;53.090;6.074;2023-03-12T14:33:10;40.42;;;7.63;;
53108;SDS011;39007;53.090;6.074;2023-03-12T14:35:40;32.15;;;7.60;;
53108;SDS011;39007;53.090;6.074;2023-03-12T14:38:13;42.40;;;8.27;;
53108;SDS011;39007;53.090;6.074;2023-03-12T14:40:42;41.80;;;7.60;;
53108;SDS011;39007;53.090;6.074;2023-03-12T14:43:26;51.20;;;9.00;;
53108;SDS011;39007;53.090;6.074;2023-03-12T14:45:56;52.97;;;13.20;;
53108;SDS011;39007;53.090;6.074;2023-03-12T14:48:26;42.47;;;8.18;;
53108;SDS011;39007;53.090;6.074;2023-03-12T14:50:54;41.63;;;8.40;;
53108;SDS011;39007;53.090;6.074;2023-03-12T14:53:23;48.78;;;9.25;;
53108;SDS011;39007;53.090;6.074;2023-03-12T14:58:24;46.00;;;8.98;;
53108;SDS011;39007;53.090;6.074;2023-03-12T15:00:54;49.08;;;8.88;;
53108;SDS011;39007;53.090;6.074;2023-03-12T15:03:22;49.97;;;9.23;;
53108;SDS011;39007;53.090;6.074;2023-03-12T15:05:48;48.65;;;9.27;;
53108;SDS011;39007;53.090;6.074;2023-03-12T15:08:15;44.83;;;9.23;;
53108;SDS011;39007;53.090;6.074;2023-03-12T15:10:55;48.28;;;8.70;;
53108;SDS011;39007;53.090;6.074;2023-03-12T15:13:22;40.13;;;8.30;;
53108;SDS011;39007;53.090;6.074;2023-03-12T15:15:50;47.33;;;9.15;;
53108;SDS011;39007;53.090;6.074;2023-03-12T15:18:17;40.70;;;8.25;;
53108;SDS011;39007;53.090;6.074;2023-03-12T15:20:44;46.78;;;9.18;;
53108;SDS011;39007;53.090;6.074;2023-03-12T15:23:11;48.70;;;8.95;;
53108;SDS011;39007;53.090;6.074;2023-03-12T15:25:40;39.92;;;8.65;;
53108;SDS011;39007;53.090;6.074;2023-03-12T15:30:36;44.25;;;8.80;;
53108;SDS011;39007;53.090;6.074;2023-03-12T15:33:11;43.13;;;9.27;;
53108;SDS011;39007;53.090;6.074;2023-03-12T15:35:39;45.45;;;9.70;;
53108;SDS011;39007;53.090;6.074;2023-03-12T15:38:12;39.13;;;8.43;;
53108;SDS011;39007;53.090;6.074;2023-03-12T15:40:38;47.13;;;8.57;;
53108;SDS011;39007;53.090;6.074;2023-03-12T15:43:04;38.80;;;8.63;;
53108;SDS011;39007;53.090;6.074;2023-03-12T15:45:34;52.45;;;9.95;;
53108;SDS011;39007;53.090;6.074;2023-03-12T15:48:02;41.13;;;9.27;;
53108;SDS011;39007;53.090;6.074;2023-03-12T15:50:30;45.33;;;9.35;;
53108;SDS011;39007;53.090;6.074;2023-03-12T15:53:21;47.45;;;8.82;;
53108;SDS011;39007;53.090;6.074;2023-03-12T15:55:44;46.55;;;9.43;;
53108;SDS011;39007;53.090;6.074;2023-03-12T15:58:38;47.58;;;8.77;;
53108;SDS011;39007;53.090;6.074;2023-03-12T16:01:05;47.45;;;9.43;;
53108;SDS011;39007;53.090;6.074;2023-03-12T16:03:32;49.30;;;9.30;;
53108;SDS011;39007;53.090;6.074;2023-03-12T16:05:58;43.25;;;9.10;;
53108;SDS011;39007;53.090;6.074;2023-03-12T16:08:24;46.80;;;9.32;;
53108;SDS011;39007;53.090;6.074;2023-03-12T16:10:53;45.00;;;9.52;;